createdAt,value
2024-01-20T00:02:24.868Z,96.09
2024-01-20T00:05:27.360Z,96.13
2024-01-20T00:08:29.055Z,95.92
2024-01-20T00:11:30.899Z,95.82
2024-01-20T00:14:32.583Z,95.74
2024-01-20T00:17:36.331Z,95.47
2024-01-20T00:20:39.212Z,95.63
2024-01-20T00:23:41.601Z,95.34
2024-01-20T00:26:43.208Z,95.66
2024-01-20T00:29:44.906Z,95.15
2024-01-20T00:32:46.704Z,94.98
2024-01-20T00:35:49.959Z,95.52
2024-01-20T00:38:51.775Z,95.62
2024-01-20T00:41:53.401Z,95.30
2024-01-20T00:44:54.968Z,95.81
2024-01-20T00:47:56.707Z,95.37
2024-01-20T00:50:58.347Z,95.47
2024-01-20T00:54:00.379Z,95.47
2024-01-20T00:57:02.597Z,95.46
2024-01-20T01:00:09.755Z,94.95
2024-01-20T01:03:11.950Z,95.34
2024-01-20T01:06:14.066Z,95.56
2024-01-20T01:09:16.045Z,95.49
2024-01-20T01:12:18.086Z,95.23
2024-01-20T01:15:20.683Z,95.39
2024-01-20T01:18:22.701Z,95.06
2024-01-20T01:21:24.393Z,94.77
2024-01-20T01:24:26.268Z,94.55
2024-01-20T01:27:28.481Z,94.48
2024-01-20T01:30:30.683Z,94.76
2024-01-20T01:33:32.762Z,94.59
2024-01-20T01:36:34.587Z,94.23
2024-01-20T01:39:36.321Z,94.21
2024-01-20T01:42:38.525Z,93.94
2024-01-20T01:45:40.983Z,93.85
2024-01-20T01:48:43.221Z,93.65
2024-01-20T01:51:45.169Z,93.68
2024-01-20T01:54:47.485Z,93.91
2024-01-20T01:57:54.213Z,94.23
2024-01-20T02:00:55.854Z,94.56
2024-01-20T02:03:58.836Z,94.50
2024-01-20T02:07:00.596Z,94.85
2024-01-20T02:10:02.428Z,94.62
2024-01-20T02:13:05.066Z,94.48
2024-01-20T02:16:06.726Z,94.18
2024-01-20T02:19:09.012Z,93.87
2024-01-20T02:22:15.539Z,93.62
2024-01-20T02:25:17.644Z,93.57
2024-01-20T02:28:19.398Z,93.83
2024-01-20T02:31:21.442Z,94.55
2024-01-20T02:34:23.233Z,94.24
2024-01-20T02:37:25.326Z,94.38
2024-01-20T02:40:27.884Z,94.04
2024-01-20T02:43:29.954Z,93.56
2024-01-20T02:46:32.125Z,93.42
2024-01-20T02:49:34.416Z,94.05
2024-01-20T02:52:36.056Z,93.88
2024-01-20T02:55:38.556Z,94.16
2024-01-20T02:58:40.592Z,93.95
2024-01-20T03:01:42.550Z,93.99
2024-01-20T03:04:45.060Z,93.91
2024-01-20T03:07:47.445Z,93.72
2024-01-20T03:10:49.019Z,93.37
2024-01-20T03:13:50.621Z,93.21
2024-01-20T03:16:52.636Z,92.83
2024-01-20T03:19:54.468Z,92.92
2024-01-20T03:22:56.200Z,92.50
2024-01-20T03:25:57.976Z,92.59
2024-01-20T03:29:00.006Z,93.03
2024-01-20T03:32:02.847Z,92.95
2024-01-20T03:35:05.373Z,92.83
2024-01-20T03:38:07.490Z,92.81
2024-01-20T03:41:09.084Z,93.18
2024-01-20T03:44:11.766Z,92.92
2024-01-20T03:47:13.813Z,92.77
2024-01-20T03:50:15.843Z,92.10
2024-01-20T03:53:17.553Z,91.91
2024-01-20T03:56:19.235Z,92.32
2024-01-20T03:59:21.841Z,92.68
2024-01-20T04:02:23.486Z,92.81
2024-01-20T04:05:25.128Z,92.87
2024-01-20T04:08:27.330Z,92.61
2024-01-20T04:11:29.307Z,92.93
2024-01-20T04:14:31.378Z,92.75
2024-01-20T04:17:33.154Z,92.99
2024-01-20T04:20:34.802Z,92.99
2024-01-20T04:23:36.456Z,93.40
2024-01-20T04:26:38.130Z,93.26
2024-01-20T04:29:39.725Z,93.04
2024-01-20T04:32:42.113Z,93.50
2024-01-20T04:35:44.528Z,93.31
2024-01-20T04:38:46.626Z,93.49
2024-01-20T04:41:48.704Z,93.09
2024-01-20T04:44:50.669Z,92.78
2024-01-20T04:47:52.862Z,93.36
2024-01-20T04:50:54.514Z,93.37
2024-01-20T04:53:56.122Z,93.46
2024-01-20T04:56:59.695Z,93.11
2024-01-20T05:00:01.979Z,93.77
2024-01-20T05:03:03.946Z,93.53
2024-01-20T05:06:07.647Z,93.39
2024-01-20T05:09:09.302Z,93.64
2024-01-20T05:12:11.472Z,93.19
2024-01-20T05:15:14.496Z,93.28
2024-01-20T05:18:16.676Z,93.34
2024-01-20T05:21:18.481Z,92.85
2024-01-20T05:24:20.131Z,93.17
2024-01-20T05:27:23.020Z,93.31
2024-01-20T05:30:25.048Z,93.06
2024-01-20T05:33:27.264Z,93.38
2024-01-20T05:36:29.032Z,93.63
2024-01-20T05:39:30.877Z,93.96
2024-01-20T05:42:33.604Z,94.13
2024-01-20T05:45:37.885Z,93.81
2024-01-20T05:48:40.568Z,93.52
2024-01-20T05:51:42.342Z,93.73
2024-01-20T05:54:43.910Z,93.40
2024-01-20T05:57:45.726Z,93.16
2024-01-20T06:00:47.902Z,93.00
2024-01-20T06:03:49.767Z,92.90
2024-01-20T06:06:51.457Z,92.34
2024-01-20T06:09:53.053Z,92.42
2024-01-20T06:12:54.783Z,92.12
2024-01-20T06:15:56.604Z,92.17
2024-01-20T06:18:58.851Z,92.69
2024-01-20T06:22:00.996Z,92.45
2024-01-20T06:25:03.411Z,92.63
2024-01-20T06:28:06.938Z,92.02
2024-01-20T06:31:11.374Z,92.10
2024-01-20T06:34:14.132Z,92.46
2024-01-20T06:37:15.839Z,92.22
2024-01-20T06:40:17.906Z,92.37
2024-01-20T06:43:19.989Z,92.01
2024-01-20T06:46:23.206Z,92.35
2024-01-20T06:49:25.553Z,92.75
2024-01-20T06:52:30.833Z,92.66
2024-01-20T06:55:32.645Z,92.41
2024-01-20T06:58:36.583Z,92.32
2024-01-20T07:01:39.224Z,92.23
2024-01-20T07:04:41.836Z,92.19
2024-01-20T07:07:43.670Z,92.24
2024-01-20T07:10:45.723Z,92.29
2024-01-20T07:13:47.596Z,92.45
2024-01-20T07:16:50.057Z,92.36
2024-01-20T07:19:52.167Z,92.73
2024-01-20T07:22:54.245Z,92.66
2024-01-20T07:25:55.859Z,92.51
2024-01-20T07:28:58.330Z,92.42
2024-01-20T07:32:00.506Z,92.22
2024-01-20T07:35:02.243Z,92.30
2024-01-20T07:38:05.301Z,92.87
2024-01-20T07:41:08.507Z,92.66
2024-01-20T07:44:10.129Z,93.00
2024-01-20T07:47:14.562Z,93.33
2024-01-20T07:50:16.451Z,93.55
2024-01-20T07:53:18.266Z,92.99
2024-01-20T07:56:20.253Z,93.45
2024-01-20T07:59:23.590Z,93.79
2024-01-20T08:02:25.467Z,93.79
2024-01-20T08:05:27.678Z,94.09
2024-01-20T08:08:30.082Z,93.84
2024-01-20T08:11:31.930Z,93.84
2024-01-20T08:14:34.425Z,94.31
2024-01-20T08:17:36.200Z,94.76
2024-01-20T08:20:37.971Z,94.61
2024-01-20T08:23:40.106Z,94.63
2024-01-20T08:26:42.978Z,94.83
2024-01-20T08:29:44.765Z,95.14
2024-01-20T08:32:46.555Z,95.63
2024-01-20T08:35:53.024Z,95.61
2024-01-20T08:38:54.844Z,95.79
2024-01-20T08:41:56.940Z,96.11
2024-01-20T08:44:59.224Z,95.88
2024-01-20T08:48:01.487Z,95.86
2024-01-20T08:51:04.849Z,96.24
2024-01-20T08:54:06.507Z,96.32
2024-01-20T08:57:08.214Z,96.28
2024-01-20T09:00:12.453Z,96.14
2024-01-20T09:03:14.374Z,95.88
2024-01-20T09:06:17.147Z,95.55
2024-01-20T09:09:20.055Z,95.82
2024-01-20T09:12:22.266Z,95.53
2024-01-20T09:15:24.493Z,95.47
2024-01-20T09:18:26.862Z,96.21
2024-01-20T09:21:29.262Z,96.13
2024-01-20T09:24:30.893Z,96.19
2024-01-20T09:27:32.700Z,96.27
2024-01-20T09:30:37.078Z,96.22
2024-01-20T09:33:39.243Z,96.11
2024-01-20T09:36:41.044Z,96.44
2024-01-20T09:39:42.916Z,96.25
2024-01-20T09:42:45.487Z,96.34
2024-01-20T09:45:48.053Z,96.52
2024-01-20T09:48:57.007Z,97.18
2024-01-20T09:52:10.574Z,97.74
2024-01-20T09:55:23.229Z,97.74
2024-01-20T09:58:27.852Z,97.75
2024-01-20T10:01:31.028Z,97.59
2024-01-20T10:04:36.102Z,97.09
2024-01-20T10:07:38.010Z,97.43
2024-01-20T10:10:40.492Z,96.85
2024-01-20T10:13:42.609Z,97.25
2024-01-20T10:16:44.260Z,97.78
2024-01-20T10:19:46.749Z,97.43
2024-01-20T10:22:50.058Z,97.36
2024-01-20T10:26:01.280Z,97.48
2024-01-20T10:29:03.356Z,97.72
2024-01-20T10:32:05.689Z,97.20
2024-01-20T10:35:09.825Z,97.12
2024-01-20T10:38:15.485Z,97.34
2024-01-20T10:41:21.651Z,96.95
2024-01-20T10:44:28.217Z,97.32
2024-01-20T10:47:35.908Z,97.19
2024-01-20T10:50:45.238Z,96.86
2024-01-20T10:53:49.867Z,97.18
2024-01-20T10:56:52.726Z,96.95
2024-01-20T10:59:57.055Z,96.52
2024-01-20T11:02:59.563Z,96.72
2024-01-20T11:06:01.431Z,96.05
2024-01-20T11:09:03.975Z,95.58
2024-01-20T11:12:10.066Z,94.64
2024-01-20T11:15:18.137Z,94.45
2024-01-20T11:18:21.830Z,94.43
2024-01-20T11:21:24.000Z,94.14
2024-01-20T11:24:37.933Z,92.94
2024-01-20T11:27:50.101Z,93.15
2024-01-20T11:30:52.386Z,92.60
2024-01-20T11:33:54.285Z,92.33
2024-01-20T11:37:00.445Z,93.17
2024-01-20T11:40:09.156Z,92.67
2024-01-20T11:43:15.400Z,92.91
2024-01-20T11:46:17.835Z,92.05
2024-01-20T11:49:20.046Z,92.03
2024-01-20T11:52:22.856Z,91.99
2024-01-20T11:55:24.484Z,91.99
2024-01-20T11:58:27.898Z,91.69
2024-01-20T12:01:30.080Z,92.21
2024-01-20T12:04:31.739Z,91.28
2024-01-20T12:07:33.395Z,91.51
2024-01-20T12:10:35.447Z,90.63
2024-01-20T12:13:37.820Z,90.78
2024-01-20T12:16:39.612Z,90.04
2024-01-20T12:19:42.465Z,90.37
2024-01-20T12:22:44.736Z,90.44
2024-01-20T12:25:47.889Z,90.35
2024-01-20T12:28:51.718Z,90.21
2024-01-20T12:31:53.417Z,89.94
2024-01-20T12:34:55.503Z,89.74
2024-01-20T12:37:57.540Z,90.09
2024-01-20T12:40:59.160Z,90.08
2024-01-20T12:44:01.919Z,89.90
2024-01-20T12:47:03.894Z,90.25
2024-01-20T12:50:06.065Z,90.20
2024-01-20T12:53:08.165Z,89.66
2024-01-20T12:56:09.826Z,89.52
2024-01-20T12:59:11.563Z,89.24
2024-01-20T13:02:13.655Z,89.16
2024-01-20T13:05:15.375Z,89.27
2024-01-20T13:08:17.458Z,88.31
2024-01-20T13:11:19.128Z,88.26
2024-01-20T13:14:21.722Z,87.81
2024-01-20T13:17:23.364Z,87.24
2024-01-20T13:20:25.040Z,85.87
2024-01-20T13:23:28.173Z,85.80
2024-01-20T13:26:30.265Z,84.50
2024-01-20T13:29:31.979Z,83.40
2024-01-20T13:32:33.732Z,84.14
2024-01-20T13:35:35.865Z,82.56
2024-01-20T13:38:38.566Z,82.47
2024-01-20T13:41:40.622Z,81.28
2024-01-20T13:44:44.188Z,80.05
2024-01-20T13:47:45.860Z,80.50
2024-01-20T13:50:47.970Z,78.81
2024-01-20T13:53:50.114Z,78.85
2024-01-20T13:56:51.747Z,76.70
2024-01-20T13:59:53.353Z,76.28
2024-01-20T14:02:55.176Z,76.73
2024-01-20T14:05:56.971Z,77.42
2024-01-20T14:08:59.278Z,76.06
2024-01-20T14:12:01.463Z,76.83
2024-01-20T14:15:03.509Z,76.65
2024-01-20T14:18:07.296Z,75.60
2024-01-20T14:21:08.996Z,73.59
2024-01-20T14:24:11.479Z,74.69
2024-01-20T14:27:13.369Z,73.69
2024-01-20T14:30:18.708Z,75.05
2024-01-20T14:33:20.957Z,76.19
2024-01-20T14:36:22.853Z,76.56
2024-01-20T14:39:25.057Z,76.86
2024-01-20T14:42:26.888Z,76.96
2024-01-20T14:45:28.966Z,77.77
2024-01-20T14:48:31.156Z,78.88
2024-01-20T14:51:33.079Z,78.76
2024-01-20T14:54:34.762Z,79.56
2024-01-20T14:57:36.782Z,78.82
2024-01-20T15:00:38.955Z,77.72
2024-01-20T15:03:40.819Z,76.92
2024-01-20T15:06:42.943Z,76.02
2024-01-20T15:09:45.169Z,75.83
2024-01-20T15:12:46.835Z,76.22
2024-01-20T15:15:48.935Z,77.32
2024-01-20T15:18:51.591Z,77.29
2024-01-20T15:21:53.784Z,77.75
2024-01-20T15:24:55.467Z,78.29
2024-01-20T15:27:57.597Z,78.57
2024-01-20T15:30:59.407Z,78.96
2024-01-20T15:34:02.329Z,79.35
2024-01-20T15:37:04.517Z,79.80
2024-01-20T15:40:07.573Z,80.75
2024-01-20T15:43:09.817Z,80.91
2024-01-20T15:46:11.977Z,81.18
2024-01-20T15:49:15.434Z,81.71
2024-01-20T15:52:17.134Z,81.76
2024-01-20T15:55:19.108Z,82.34
2024-01-20T15:58:21.582Z,82.50
2024-01-20T16:01:24.241Z,82.45
2024-01-20T16:04:26.685Z,82.85
2024-01-20T16:07:28.974Z,83.06
2024-01-20T16:10:30.775Z,83.74
2024-01-20T16:13:32.895Z,83.99
2024-01-20T16:16:34.510Z,84.03
2024-01-20T16:19:36.554Z,84.60
2024-01-20T16:22:38.315Z,84.64
2024-01-20T16:25:40.800Z,84.97
2024-01-20T16:28:42.457Z,85.11
2024-01-20T16:31:44.498Z,86.17
2024-01-20T16:34:46.647Z,86.18
2024-01-20T16:37:48.731Z,86.17
2024-01-20T16:40:50.423Z,86.21
2024-01-20T16:43:53.102Z,86.68
2024-01-20T16:46:54.870Z,86.87
2024-01-20T16:49:57.415Z,86.87
2024-01-20T16:53:04.078Z,87.06
2024-01-20T16:56:06.312Z,87.28
2024-01-20T16:59:08.877Z,87.36
2024-01-20T17:02:10.985Z,87.41
2024-01-20T17:05:12.712Z,87.67
2024-01-20T17:08:14.570Z,87.78
2024-01-20T17:11:16.220Z,88.17
2024-01-20T17:14:19.126Z,87.78
2024-01-20T17:17:21.277Z,87.81
2024-01-20T17:20:23.705Z,87.86
2024-01-20T17:23:25.924Z,88.04
2024-01-20T17:26:31.833Z,88.46
2024-01-20T17:29:33.487Z,88.66
2024-01-20T17:32:38.532Z,88.92
2024-01-20T17:35:40.967Z,89.16
2024-01-20T17:38:42.921Z,89.16
2024-01-20T17:41:45.108Z,89.12
2024-01-20T17:44:47.495Z,89.56
2024-01-20T17:47:50.080Z,89.62
2024-01-20T17:50:53.566Z,89.87
2024-01-20T17:53:57.175Z,89.79
2024-01-20T17:57:04.076Z,89.97
2024-01-20T18:00:07.268Z,90.48
2024-01-20T18:03:13.083Z,90.14
2024-01-20T18:06:15.703Z,90.53
2024-01-20T18:09:18.406Z,90.68
2024-01-20T18:12:20.134Z,90.73
2024-01-20T18:15:22.331Z,90.86
2024-01-20T18:18:24.211Z,90.79
2024-01-20T18:21:26.304Z,90.76
2024-01-20T18:24:28.134Z,91.23
2024-01-20T18:27:30.550Z,91.32
2024-01-20T18:30:32.704Z,91.46
2024-01-20T18:33:38.553Z,91.57
2024-01-20T18:36:40.727Z,91.64
2024-01-20T18:39:42.394Z,91.29
2024-01-20T18:42:46.939Z,91.53
2024-01-20T18:45:50.190Z,91.85
2024-01-20T18:48:51.954Z,91.67
2024-01-20T18:51:54.805Z,91.57
2024-01-20T18:54:56.794Z,91.68
2024-01-20T18:57:58.422Z,91.83
2024-01-20T19:01:00.434Z,91.65
2024-01-20T19:04:03.429Z,91.98
2024-01-20T19:07:08.573Z,92.23
2024-01-20T19:10:10.999Z,92.06
2024-01-20T19:13:13.182Z,92.32
2024-01-20T19:16:14.878Z,92.40
2024-01-20T19:19:16.676Z,92.64
2024-01-20T19:22:18.971Z,92.33
2024-01-20T19:25:20.551Z,92.61
2024-01-20T19:28:23.226Z,92.41
2024-01-20T19:31:24.785Z,92.63
2024-01-20T19:34:26.594Z,92.59
2024-01-20T19:37:28.803Z,92.84
2024-01-20T19:40:30.879Z,92.98
2024-01-20T19:43:35.248Z,92.96
2024-01-20T19:46:41.143Z,92.68
2024-01-20T19:49:44.170Z,92.72
2024-01-20T19:52:45.793Z,93.00
2024-01-20T19:55:47.835Z,93.07
2024-01-20T19:58:49.586Z,93.14
2024-01-20T20:01:51.276Z,92.96
2024-01-20T20:04:53.479Z,93.28
2024-01-20T20:07:55.104Z,93.38
2024-01-20T20:10:56.766Z,93.65
2024-01-20T20:13:58.689Z,93.85
2024-01-20T20:17:00.389Z,93.85
2024-01-20T20:20:27.202Z,93.84
2024-01-20T20:23:28.861Z,93.58
2024-01-20T20:26:31.560Z,93.69
2024-01-20T20:29:35.190Z,93.99
2024-01-20T20:32:39.947Z,93.96
2024-01-20T20:35:42.073Z,93.88
2024-01-20T20:38:43.656Z,94.09
2024-01-20T20:41:49.150Z,93.89
2024-01-20T20:44:51.524Z,93.77
2024-01-20T20:47:54.246Z,93.56
2024-01-20T20:50:59.075Z,94.13
2024-01-20T20:54:01.341Z,94.04
2024-01-20T20:57:03.176Z,93.43
2024-01-20T21:00:06.097Z,93.29
2024-01-20T21:03:07.824Z,92.95
2024-01-20T21:06:09.955Z,92.82
2024-01-20T21:09:12.518Z,92.44
2024-01-20T21:12:14.442Z,92.00
2024-01-20T21:15:16.977Z,91.71
2024-01-20T21:18:19.155Z,91.42
2024-01-20T21:21:22.121Z,91.17
2024-01-20T21:24:25.496Z,91.22
2024-01-20T21:27:29.964Z,90.94
2024-01-20T21:30:31.626Z,90.72
2024-01-20T21:33:33.837Z,90.58
2024-01-20T21:36:35.976Z,90.60
2024-01-20T21:39:38.740Z,90.80
2024-01-20T21:42:40.535Z,90.72
2024-01-20T21:45:43.897Z,90.91
2024-01-20T21:48:45.667Z,90.96
2024-01-20T21:51:49.747Z,90.81
2024-01-20T21:54:51.868Z,90.93
2024-01-20T21:57:56.330Z,90.93
2024-01-20T22:00:59.041Z,90.80
2024-01-20T22:04:01.787Z,91.26
2024-01-20T22:07:03.696Z,91.04
2024-01-20T22:10:06.161Z,90.98
2024-01-20T22:13:07.831Z,91.30
2024-01-20T22:16:10.028Z,91.06
2024-01-20T22:19:12.099Z,90.92
2024-01-20T22:22:14.390Z,91.40
2024-01-20T22:25:16.653Z,91.71
2024-01-20T22:28:18.374Z,91.91
2024-01-20T22:31:20.377Z,91.54
2024-01-20T22:34:23.296Z,91.68
2024-01-20T22:37:26.334Z,91.19
2024-01-20T22:40:30.770Z,91.08
2024-01-20T22:43:32.881Z,91.43
2024-01-20T22:46:34.502Z,91.39
2024-01-20T22:49:36.260Z,91.86
2024-01-20T22:52:38.956Z,91.82
2024-01-20T22:55:41.062Z,91.52
2024-01-20T22:58:45.779Z,91.58
2024-01-20T23:01:47.822Z,91.63
2024-01-20T23:04:51.776Z,91.42
2024-01-20T23:07:55.542Z,91.73
2024-01-20T23:10:57.766Z,91.90
2024-01-20T23:13:59.363Z,91.58
2024-01-20T23:17:01.445Z,92.20
2024-01-20T23:20:04.916Z,92.33
2024-01-20T23:23:07.401Z,91.92
2024-01-20T23:26:10.627Z,91.98
2024-01-20T23:29:12.582Z,91.83
2024-01-20T23:32:14.938Z,91.98
2024-01-20T23:35:17.145Z,92.12
2024-01-20T23:38:18.760Z,92.26
2024-01-20T23:41:20.914Z,92.27
2024-01-20T23:44:23.047Z,92.35
2024-01-20T23:47:25.111Z,92.21
2024-01-20T23:50:27.139Z,92.30
2024-01-20T23:53:29.210Z,92.78
2024-01-20T23:56:30.784Z,92.68
2024-01-20T23:59:32.366Z,92.99
